Time;durP1;ratioP1;P1;durP2;ratioP2;P2;SDS_P1;SDS_P2;PMS_P1;PMS_P2;Temp;Humidity;BMP_temperature;BMP_pressure;BME280_temperature;BME280_humidity;BME280_pressure;Samples;Min_cycle;Max_cycle;Signal;HPM_P1;HPM_P2
2022/12/20 00:01:55;;;;;;;8.63;3.97;;;;;;;0.82;98.31;93653.19;5091428;28;20047;-80
2022/12/20 00:04:21;;;;;;;10.75;3.60;;;;;;;0.80;98.47;93661.09;5090330;28;20036;-80
2022/12/20 00:06:47;;;;;;;4.80;2.30;;;;;;;0.78;98.11;93651.97;5108263;28;20039;-80
2022/12/20 00:09:12;;;;;;;4.30;2.15;;;;;;;0.83;96.01;93659.91;5073412;28;20262;-80
2022/12/20 00:11:39;;;;;;;8.15;2.72;;;;;;;0.81;94.75;93657.56;5108305;28;20062;-80
2022/12/20 00:14:06;;;;;;;4.35;2.38;;;;;;;0.80;94.48;93655.16;5089462;28;20028;-80
2022/12/20 00:16:32;;;;;;;4.78;2.47;;;;;;;0.78;94.93;93651.97;5107157;28;20028;-80
2022/12/20 00:19:02;;;;;;;6.50;2.63;;;;;;;0.80;95.47;93653.38;5088784;28;20480;-80
2022/12/20 00:21:28;;;;;;;4.53;2.08;;;;;;;0.78;96.98;93647.63;5106689;28;20055;-80
2022/12/20 00:23:54;;;;;;;5.65;2.50;;;;;;;0.75;98.07;93642.88;5107356;28;20054;-80
2022/12/20 00:26:22;;;;;;;7.57;2.55;;;;;;;0.75;97.96;93642.88;5088906;28;20044;-80
2022/12/20 00:29:09;;;;;;;4.72;2.38;;;;;;;0.75;97.30;93644.66;5089554;28;20107;-80
2022/12/20 00:31:35;;;;;;;6.15;3.00;;;;;;;0.76;96.65;93641.88;5072376;28;20036;-81
2022/12/20 00:34:01;;;;;;;7.07;3.08;;;;;;;0.76;95.94;93639.28;5107248;28;20038;-80
2022/12/20 00:36:30;;;;;;;9.32;3.80;;;;;;;0.75;95.38;93631.78;5088814;28;20054;-80
2022/12/20 00:38:59;;;;;;;7.55;3.17;;;;;;;0.79;95.25;93627.81;5106593;28;20031;-80
2022/12/20 00:41:27;;;;;;;5.38;2.60;;;;;;;0.78;95.32;93621.06;5089092;28;20024;-80
2022/12/20 00:44:12;;;;;;;9.77;3.13;;;;;;;0.78;95.73;93621.06;5074591;28;20027;-80
2022/12/20 00:46:38;;;;;;;5.25;2.67;;;;;;;0.78;95.54;93615.91;5110434;28;20040;-80
2022/12/20 00:49:04;;;;;;;5.30;2.60;;;;;;;0.76;95.39;93608.34;5109733;28;20040;-80
2022/12/20 00:51:31;;;;;;;5.38;2.70;;;;;;;0.73;95.56;93611.34;5075564;28;20056;-80
2022/12/20 00:53:57;;;;;;;5.68;3.00;;;;;;;0.78;95.55;93611.53;5109845;28;20032;-80
2022/12/20 00:56:23;;;;;;;6.15;3.10;;;;;;;0.76;96.50;93608.34;5090952;28;20040;-80
2022/12/20 00:58:52;;;;;;;3.75;1.90;;;;;;;0.73;97.71;93600.25;5108430;28;20036;-80
2022/12/20 01:01:21;;;;;;;3.70;2.10;;;;;;;0.71;99.50;93609.97;5108579;28;20040;-80
2022/12/20 01:03:48;;;;;;;4.32;2.25;;;;;;;0.65;99.52;93610.75;5089778;28;20036;-80
2022/12/20 01:06:14;;;;;;;4.70;2.40;;;;;;;0.56;99.53;93603.22;5090581;28;20473;-79
2022/12/20 01:08:39;;;;;;;4.70;2.20;;;;;;;0.62;99.31;93607.56;5108822;28;20485;-80
2022/12/20 01:11:11;;;;;;;4.22;2.50;;;;;;;0.56;99.03;93600.63;5090697;28;20040;-80
2022/12/20 01:13:39;;;;;;;4.60;2.22;;;;;;;0.61;98.89;93607.78;5091119;28;20032;-80
2022/12/20 01:16:26;;;;;;;4.25;2.20;;;;;;;0.68;99.33;93606.00;5107868;28;20023;-80
2022/12/20 01:18:52;;;;;;;9.60;4.35;;;;;;;0.75;98.64;93616.31;5073153;28;20071;-80
2022/12/20 01:21:20;;;;;;;10.20;4.25;;;;;;;0.77;97.97;93614.31;5090320;28;20070;-80
2022/12/20 01:23:46;;;;;;;5.05;2.25;;;;;;;1.13;96.84;93623.44;5089250;28;20038;-79
2022/12/20 01:26:14;;;;;;;4.45;2.22;;;;;;;1.05;96.46;93627.00;5089505;28;20047;-81
2022/12/20 01:28:42;;;;;;;4.15;2.20;;;;;;;1.04;96.66;93621.06;5107751;28;20054;-80
2022/12/20 01:31:10;;;;;;;10.82;3.53;;;;;;;1.03;96.89;93624.59;5108340;28;20043;-79
2022/12/20 01:33:36;;;;;;;12.68;4.93;;;;;;;1.01;96.61;93618.88;5089975;28;20065;-80
2022/12/20 01:36:09;;;;;;;7.45;2.90;;;;;;;1.02;96.47;93624.84;5089733;28;20086;-80
2022/12/20 01:38:35;;;;;;;6.15;2.60;;;;;;;1.02;96.86;93619.66;5088914;28;20030;-80
2022/12/20 01:41:01;;;;;;;6.35;3.33;;;;;;;1.02;96.92;93623.03;5089073;28;20028;-80
2022/12/20 01:43:51;;;;;;;8.75;4.90;;;;;;;1.04;97.38;93626.22;5088480;28;20374;-80
2022/12/20 01:46:19;;;;;;;13.02;6.50;;;;;;;1.07;98.12;93627.59;5106903;28;20039;-80
2022/12/20 01:48:56;;;;;;;11.65;5.75;;;;;;;1.09;98.42;93627.41;5088985;28;20020;-80
2022/12/20 01:51:23;;;;;;;11.43;5.97;;;;;;;1.10;98.37;93618.66;5089139;28;20091;-80
2022/12/20 01:53:55;;;;;;;5.68;3.22;;;;;;;1.17;98.11;93614.28;5106924;28;20047;-80
2022/12/20 01:56:21;;;;;;;5.65;2.17;;;;;;;1.17;98.49;93606.53;5089175;28;20358;-80
2022/12/20 01:58:49;;;;;;;4.25;2.15;;;;;;;1.22;98.12;93609.34;5088832;28;20028;-80
2022/12/20 02:01:15;;;;;;;4.55;1.92;;;;;;;1.29;97.68;93610.13;5089744;28;20089;-80
2022/12/20 02:03:41;;;;;;;4.03;2.17;;;;;;;1.33;95.91;93603.56;5089896;28;20465;-80
2022/12/20 02:06:18;;;;;;;4.00;2.08;;;;;;;1.39;94.06;93607.09;5090082;28;20477;-80
2022/12/20 02:08:46;;;;;;;3.50;2.03;;;;;;;1.41;94.16;93605.91;5089954;28;20127;-80
2022/12/20 02:11:56;;;;;;;3.70;2.00;;;;;;;1.41;94.24;93594.81;5107513;28;20066;-80
2022/12/20 02:14:41;;;;;;;2.95;1.75;;;;;;;1.44;93.89;93595.19;5089702;28;20028;-80
2022/12/20 02:17:59;;;;;;;4.45;2.00;;;;;;;1.47;93.29;93594.00;5106903;28;20032;-80
2022/12/20 02:20:44;;;;;;;3.00;1.70;;;;;;;1.50;93.23;93593.59;5016109;28;20144;-80
2022/12/20 02:23:29;;;;;;;3.70;1.83;;;;;;;1.50;93.18;93585.84;5102509;28;20036;-80
2022/12/20 02:26:20;;;;;;;3.28;1.83;;;;;;;1.50;93.17;93578.09;5073725;28;20039;-80
2022/12/20 02:29:14;;;;;;;4.22;2.20;;;;;;;1.51;92.96;93577.13;5073366;28;20040;-80
2022/12/20 02:31:48;;;;;;;4.22;2.35;;;;;;;1.48;92.83;93571.56;5073102;28;20055;-80
2022/12/20 02:34:15;;;;;;;3.78;2.05;;;;;;;1.52;92.85;93570.16;5090838;28;20082;-80
2022/12/20 02:37:00;;;;;;;3.63;1.90;;;;;;;1.53;93.00;93574.31;5090387;28;20103;-80
2022/12/20 02:39:28;;;;;;;6.07;2.10;;;;;;;1.49;92.99;93565.38;5089677;28;20032;-80
2022/12/20 02:42:05;;;;;;;4.60;2.35;;;;;;;1.50;92.90;93561.84;5091009;28;20044;-80
2022/12/20 02:51:27;;;;;;;3.97;1.90;;;;;;;1.57;94.15;93563.38;5093385;28;20035;-81
2022/12/20 02:53:54;;;;;;;2.90;1.63;;;;;;;1.59;94.27;93563.19;5073965;28;20051;-80
2022/12/20 02:56:45;;;;;;;3.65;1.77;;;;;;;1.61;93.98;93561.19;5089601;28;20054;-81
2022/12/20 02:59:17;;;;;;;2.60;1.60;;;;;;;1.61;93.80;93559.41;5090242;28;20460;-80
2022/12/20 03:01:47;;;;;;;3.50;2.10;;;;;;;1.62;93.68;93544.69;5089963;28;20092;-80
2022/12/20 03:04:16;;;;;;;2.97;1.73;;;;;;;1.71;93.69;93546.03;5089178;28;20108;-80
2022/12/20 03:07:09;;;;;;;4.40;2.00;;;;;;;1.71;93.98;93550.44;5106963;28;20032;-80
2022/12/20 03:09:38;;;;;;;3.55;2.10;;;;;;;1.69;94.83;93550.66;5089293;28;20165;-80
2022/12/20 03:12:06;;;;;;;4.78;1.88;;;;;;;1.65;94.65;93539.16;5071904;28;20028;-80
2022/12/20 03:14:34;;;;;;;6.90;2.90;;;;;;;1.69;94.98;93545.50;5088706;28;20046;-80
2022/12/20 03:17:02;;;;;;;4.57;2.30;;;;;;;1.72;95.07;93554.59;5089210;28;20035;-80
2022/12/20 03:19:28;;;;;;;6.07;2.70;;;;;;;1.74;95.09;93553.41;5088474;28;20441;-80
2022/12/20 03:21:55;;;;;;;4.82;2.40;;;;;;;1.76;95.37;93551.41;5089477;28;20028;-80
2022/12/20 03:24:20;;;;;;;5.60;2.00;;;;;;;1.76;95.39;93550.63;5072180;28;20048;-80
2022/12/20 03:26:47;;;;;;;4.18;1.98;;;;;;;1.78;95.89;93549.41;5072294;28;20042;-80
2022/12/20 03:29:13;;;;;;;3.08;1.70;;;;;;;1.83;96.09;93547.00;5088668;28;20060;-80
2022/12/20 03:31:40;;;;;;;2.85;1.60;;;;;;;1.86;96.41;93550.97;5089018;28;20040;-80
2022/12/20 03:34:06;;;;;;;3.38;1.80;;;;;;;1.88;96.45;93543.78;5071997;28;20111;-80
2022/12/20 03:36:33;;;;;;;3.90;2.00;;;;;;;1.91;96.66;93542.59;5088416;28;20028;-80
2022/12/20 03:39:39;;;;;;;4.40;2.13;;;;;;;1.92;97.05;93539.81;5071720;28;20032;-80
2022/12/20 03:42:07;;;;;;;5.85;2.30;;;;;;;1.96;97.69;93546.16;5088798;28;20024;-79
2022/12/20 03:44:32;;;;;;;3.60;2.00;;;;;;;1.97;97.85;93536.59;5071970;28;20050;-81
2022/12/20 03:46:58;;;;;;;3.45;1.80;;;;;;;1.96;97.87;93522.91;5072073;28;20103;-79
2022/12/20 03:49:24;;;;;;;3.13;1.65;;;;;;;1.99;97.92;93532.03;5087635;28;20055;-80
2022/12/20 03:51:51;;;;;;;3.60;1.80;;;;;;;1.94;98.26;93522.31;5088748;28;20623;-80
2022/12/20 03:54:17;;;;;;;3.15;1.60;;;;;;;1.99;98.00;93524.28;5088504;28;20040;-80
2022/12/20 03:57:06;;;;;;;6.03;1.80;;;;;;;2.00;98.34;93520.69;5092261;28;20039;-80
2022/12/20 03:59:32;;;;;;;3.42;1.75;;;;;;;1.99;98.19;93519.13;5107852;28;20039;-79
2022/12/20 04:01:59;;;;;;;2.92;1.60;;;;;;;2.01;98.51;93519.69;5095087;28;20046;-80
2022/12/20 04:04:27;;;;;;;3.35;1.67;;;;;;;2.01;99.14;93512.75;5078064;28;20038;-79
2022/12/20 04:06:52;;;;;;;2.58;1.50;;;;;;;1.98;99.21;93517.50;5092408;28;20040;-80
2022/12/20 04:09:20;;;;;;;2.88;1.40;;;;;;;1.99;98.91;93514.75;5091543;28;20146;-80
2022/12/20 04:11:49;;;;;;;1.90;1.47;;;;;;;2.04;99.58;93521.84;5059112;28;20020;-81
2022/12/20 04:14:15;;;;;;;4.15;1.73;;;;;;;2.05;99.41;93519.06;5073897;28;20273;-80
2022/12/20 04:16:42;;;;;;;3.08;1.58;;;;;;;2.06;99.28;93512.13;5109308;28;20040;-80
2022/12/20 04:19:09;;;;;;;3.30;1.70;;;;;;;2.07;99.13;93517.09;5077158;28;20024;-80
2022/12/20 04:21:57;;;;;;;4.63;2.00;;;;;;;2.08;98.93;93518.66;5107438;28;20184;-81
2022/12/20 04:24:23;;;;;;;3.58;1.70;;;;;;;2.11;99.12;93511.50;5078584;28;20390;-80
2022/12/20 04:27:15;;;;;;;2.90;1.70;;;;;;;2.14;99.60;93500.72;4997347;28;20197;-80
2022/12/20 04:29:41;;;;;;;2.90;1.70;;;;;;;2.15;99.64;93505.69;5089737;28;20052;-80
2022/12/20 04:32:16;;;;;;;3.80;1.90;;;;;;;2.15;99.61;93512.66;5093772;28;20104;-80
2022/12/20 04:34:43;;;;;;;2.97;1.60;;;;;;;2.14;99.64;93519.63;5076979;28;20036;-80
2022/12/20 04:37:09;;;;;;;3.17;1.80;;;;;;;2.11;99.34;93512.28;5092819;28;20097;-80
2022/12/20 04:39:45;;;;;;;2.97;1.70;;;;;;;2.13;99.26;93510.28;5111064;28;20504;-80
2022/12/20 04:42:16;;;;;;;3.22;1.75;;;;;;;2.10;99.71;93499.59;5092655;28;20046;-80
2022/12/20 04:44:42;;;;;;;3.75;1.83;;;;;;;2.07;99.90;93491.25;5092477;28;20095;-80
2022/12/20 04:47:09;;;;;;;2.97;1.70;;;;;;;2.12;100.00;93498.38;5076550;28;20024;-81
2022/12/20 04:49:35;;;;;;;2.75;1.52;;;;;;;2.14;100.00;93498.97;5091191;28;20115;-80
2022/12/20 04:55:04;;;;;;;2.38;1.40;;;;;;;2.14;100.00;93486.03;5092221;28;20040;-80
2022/12/20 04:57:32;;;;;;;2.95;1.80;;;;;;;2.13;100.00;93484.44;5075327;28;20032;-80
2022/12/20 05:00:18;;;;;;;2.75;1.60;;;;;;;2.14;100.00;93486.03;5091690;28;20036;-80
2022/12/20 05:02:50;;;;;;;3.90;1.70;;;;;;;2.11;99.70;93478.69;5091541;28;20028;-80
2022/12/20 05:05:18;;;;;;;3.08;1.60;;;;;;;2.15;99.21;93492.78;5058359;28;20044;-80
2022/12/20 05:07:52;;;;;;;3.42;1.80;;;;;;;2.16;99.09;93488.41;5090766;28;20036;-80
2022/12/20 05:10:18;;;;;;;2.90;1.63;;;;;;;2.15;98.92;93492.78;5074488;28;20378;-80
2022/12/20 05:12:44;;;;;;;3.13;1.63;;;;;;;2.15;98.78;93495.34;5091099;28;20044;-81
2022/12/20 05:15:36;;;;;;;2.22;1.48;;;;;;;2.16;99.08;93496.16;5090463;28;20035;-80
2022/12/20 05:18:03;;;;;;;4.63;1.50;;;;;;;2.15;99.43;93489.41;5090997;28;20039;-81
2022/12/20 05:20:40;;;;;;;2.70;1.50;;;;;;;2.15;99.47;93492.78;5092272;28;20070;-80
2022/12/20 05:26:43;;;;;;;4.38;2.00;;;;;;;2.16;99.42;93490.97;5112038;28;20097;-79
2022/12/20 05:29:11;;;;;;;3.40;1.80;;;;;;;2.14;99.81;93485.22;5096031;28;20036;-79
2022/12/20 05:31:37;;;;;;;2.95;1.60;;;;;;;2.14;99.99;93486.03;5094698;28;20039;-80
2022/12/20 05:34:03;;;;;;;2.65;1.50;;;;;;;2.09;100.00;93480.69;5093799;28;20067;-80
2022/12/20 05:36:34;;;;;;;3.05;1.70;;;;;;;2.09;100.00;93483.28;5077177;28;20047;-80
2022/12/20 05:39:01;;;;;;;2.30;1.45;;;;;;;2.06;100.00;93492.22;5093728;28;20051;-80
2022/12/20 05:41:27;;;;;;;2.65;1.40;;;;;;;2.08;100.00;93487.66;5092809;28;20046;-81
2022/12/20 05:43:53;;;;;;;3.10;1.50;;;;;;;2.05;100.00;93493.25;5075614;28;20036;-80
2022/12/20 05:46:19;;;;;;;4.05;1.50;;;;;;;2.07;100.00;93480.09;5086028;28;20043;-80
2022/12/20 05:48:59;;;;;;;2.78;1.55;;;;;;;2.08;100.00;93486.88;5080034;28;20028;-81
2022/12/20 05:51:24;;;;;;;2.90;1.60;;;;;;;2.06;100.00;93478.53;5060035;28;20036;-79
2022/12/20 05:53:55;;;;;;;2.17;1.30;;;;;;;2.06;100.00;93484.50;5040357;28;20040;-80
2022/12/20 05:56:32;;;;;;;3.55;1.77;;;;;;;2.01;100.00;93479.16;5055963;28;20036;-83
2022/12/20 05:58:58;;;;;;;3.47;1.50;;;;;;;1.98;100.00;93481.38;5061649;28;20024;-81
2022/12/20 06:01:24;;;;;;;2.70;1.52;;;;;;;1.98;99.91;93478.78;5039238;28;20371;-80
2022/12/20 06:03:55;;;;;;;4.40;1.80;;;;;;;1.98;99.96;93477.00;5056408;28;20405;-80
2022/12/20 06:06:21;;;;;;;6.28;1.52;;;;;;;2.01;100.00;93480.97;5075319;28;20142;-79
2022/12/20 06:08:47;;;;;;;3.28;1.70;;;;;;;2.07;97.40;93486.09;5055971;28;20041;-78
2022/12/20 06:11:18;;;;;;;3.03;1.70;;;;;;;2.12;97.01;93482.88;5056593;28;20036;-78
2022/12/20 06:13:49;;;;;;;2.60;1.40;;;;;;;2.15;96.49;93477.28;5041140;28;20029;-79
2022/12/20 06:16:15;;;;;;;3.65;1.70;;;;;;;2.13;96.47;93476.69;5056490;28;20052;-79
2022/12/20 06:18:40;;;;;;;2.90;1.70;;;;;;;2.12;96.54;93474.31;5056637;28;20036;-79
2022/12/20 06:21:06;;;;;;;4.35;2.28;;;;;;;2.08;96.48;93469.56;5037971;28;20127;-79
2022/12/20 06:23:33;;;;;;;5.18;2.63;;;;;;;2.09;97.21;93478.09;5040592;28;20063;-78
2022/12/20 06:26:08;;;;;;;3.95;2.30;;;;;;;2.04;97.72;93472.78;5056949;28;20376;-79
2022/12/20 06:28:41;;;;;;;3.85;2.10;;;;;;;2.05;97.98;93480.34;5001764;28;20057;-79
2022/12/20 06:31:09;;;;;;;4.20;2.10;;;;;;;2.06;98.01;93479.31;5036603;28;20043;-79
2022/12/20 06:33:45;;;;;;;2.83;1.60;;;;;;;2.06;97.76;93473.38;5028713;28;20025;-78
2022/12/20 06:36:14;;;;;;;2.88;1.60;;;;;;;2.06;97.31;93475.94;5020549;28;20048;-80
2022/12/20 06:38:41;;;;;;;3.20;1.80;;;;;;;2.04;97.09;93477.94;5037178;28;20052;-79
2022/12/20 06:41:07;;;;;;;2.60;1.58;;;;;;;2.07;97.12;93480.09;5019849;28;20040;-79
2022/12/20 06:43:32;;;;;;;2.90;1.52;;;;;;;2.08;97.49;93486.88;5036644;28;20564;-79
2022/12/20 06:45:58;;;;;;;3.08;1.67;;;;;;;2.05;97.71;93470.00;5020516;28;20072;-78
2022/12/20 06:48:24;;;;;;;2.78;1.70;;;;;;;2.07;98.27;93475.75;4988524;28;20036;-79
2022/12/20 06:50:50;;;;;;;2.90;1.60;;;;;;;2.06;98.43;93474.16;5036819;28;20418;-79
2022/12/20 06:53:17;;;;;;;2.92;1.52;;;;;;;2.06;99.26;93478.53;5036271;28;20044;-79
2022/12/20 06:55:42;;;;;;;3.40;1.60;;;;;;;2.06;99.12;93483.69;5035566;28;20487;-82
2022/12/20 06:58:08;;;;;;;2.75;1.52;;;;;;;2.05;98.66;93476.97;5035534;28;20138;-82
2022/12/20 07:00:36;;;;;;;3.33;1.80;;;;;;;2.06;98.89;93481.13;5014385;28;20529;-81
2022/12/20 07:03:02;;;;;;;6.05;1.95;;;;;;;2.02;98.98;93472.19;5049014;28;20029;-81
2022/12/20 07:05:27;;;;;;;3.58;1.80;;;;;;;2.00;99.17;93474.97;5034335;28;20041;-81
2022/12/20 07:07:53;;;;;;;3.53;1.65;;;;;;;1.98;99.46;93477.00;5053012;28;20044;-80
2022/12/20 07:10:18;;;;;;;3.30;1.70;;;;;;;1.95;99.23;93476.63;5053268;28;20021;-82
2022/12/20 07:12:44;;;;;;;2.83;1.52;;;;;;;1.95;99.38;93471.47;5015148;28;20037;-80
2022/12/20 07:15:10;;;;;;;3.28;1.70;;;;;;;1.95;100.00;93469.66;5025696;28;20084;-80
2022/12/20 07:17:35;;;;;;;3.72;1.70;;;;;;;1.95;100.00;93474.03;5015521;28;20044;-81
2022/12/20 07:20:01;;;;;;;2.47;1.38;;;;;;;1.94;100.00;93472.47;5031843;28;20045;-82
2022/12/20 07:22:26;;;;;;;2.67;1.50;;;;;;;1.97;100.00;93479.78;5052164;28;20052;-82
2022/12/20 07:24:52;;;;;;;4.05;1.55;;;;;;;1.97;100.00;93478.00;5053253;28;20037;-82
2022/12/20 07:27:17;;;;;;;2.85;1.48;;;;;;;1.96;100.00;93480.78;5052906;28;20041;-81
2022/12/20 07:29:43;;;;;;;4.72;1.60;;;;;;;1.97;100.00;93479.78;5018533;28;20514;-81
2022/12/20 07:32:11;;;;;;;4.70;1.27;;;;;;;1.92;100.00;93487.38;5034131;28;20036;-80
2022/12/20 07:34:36;;;;;;;2.72;1.45;;;;;;;1.97;100.00;93498.66;5022105;28;20127;-80
2022/12/20 07:37:02;;;;;;;3.63;1.55;;;;;;;1.96;100.00;93488.53;5030468;28;20060;-80
2022/12/20 07:39:28;;;;;;;3.13;1.50;;;;;;;2.01;100.00;93496.47;5046532;28;20111;-82
2022/12/20 07:41:54;;;;;;;2.67;1.58;;;;;;;2.05;100.00;93495.84;5052377;28;20036;-82
2022/12/20 07:44:21;;;;;;;3.65;1.70;;;;;;;2.08;100.00;93497.19;5024729;28;20118;-82
2022/12/20 07:46:47;;;;;;;2.40;1.52;;;;;;;2.05;100.00;93492.47;5034509;28;20021;-82
2022/12/20 07:49:13;;;;;;;3.20;1.70;;;;;;;2.12;100.00;93497.56;5053092;28;20039;-80
2022/12/20 07:51:44;;;;;;;2.70;1.38;;;;;;;2.14;100.00;93500.72;5018066;28;20037;-80
2022/12/20 07:54:13;;;;;;;3.95;1.70;;;;;;;2.16;100.00;93504.72;5057909;28;20021;-81
2022/12/20 07:56:42;;;;;;;3.25;1.80;;;;;;;2.25;98.67;93508.63;5056421;28;20104;-80
2022/12/20 07:59:11;;;;;;;11.18;4.82;;;;;;;2.33;97.84;93504.19;5056854;28;20076;-80
2022/12/20 08:01:37;;;;;;;10.10;4.32;;;;;;;2.39;96.18;93488.63;5057163;28;20106;-82
2022/12/20 08:04:09;;;;;;;7.72;3.42;;;;;;;2.52;95.82;93498.06;5056045;28;20506;-82
2022/12/20 08:06:36;;;;;;;6.07;2.40;;;;;;;2.54;96.22;93503.03;5056984;28;20433;-82
2022/12/20 08:09:04;;;;;;;6.55;2.53;;;;;;;2.54;96.25;93497.84;5038513;28;20304;-81
2022/12/20 08:11:34;;;;;;;7.70;2.53;;;;;;;2.50;96.19;93489.75;5038500;28;20048;-80
2022/12/20 08:13:59;;;;;;;7.22;2.63;;;;;;;2.54;96.03;93497.84;5038453;28;20033;-81
2022/12/20 08:16:25;;;;;;;4.90;2.15;;;;;;;2.56;96.46;93498.44;5032513;28;20074;-81
2022/12/20 08:18:51;;;;;;;4.20;2.00;;;;;;;2.57;96.63;93494.84;5057276;28;20123;-83
2022/12/20 08:21:16;;;;;;;4.78;2.22;;;;;;;2.59;96.18;93495.41;5055972;28;20368;-82
2022/12/20 08:23:42;;;;;;;4.18;2.10;;;;;;;2.54;95.45;93479.75;5037778;28;20056;-82
2022/12/20 08:26:07;;;;;;;3.97;2.00;;;;;;;2.63;94.58;93492.19;5056528;28;20495;-81
2022/12/20 08:28:33;;;;;;;5.38;2.03;;;;;;;2.64;94.64;93480.88;5055259;28;20045;-80
2022/12/20 08:31:03;;;;;;;5.20;2.13;;;;;;;2.69;94.25;93485.41;5058222;28;20512;-80
2022/12/20 08:33:29;;;;;;;5.57;1.90;;;;;;;2.74;94.26;93492.50;5077233;28;20504;-82
2022/12/20 08:35:59;;;;;;;4.57;1.98;;;;;;;2.77;94.40;93489.50;5076446;28;20039;-82
2022/12/20 08:38:27;;;;;;;3.97;1.98;;;;;;;2.80;94.58;93476.16;5042501;28;20044;-79
2022/12/20 08:40:52;;;;;;;4.30;1.95;;;;;;;2.86;94.31;93475.28;5041523;28;20460;-81
2022/12/20 08:43:18;;;;;;;4.82;1.90;;;;;;;2.89;94.67;93480.81;5075411;28;20028;-81
2022/12/20 08:45:43;;;;;;;4.75;1.98;;;;;;;2.94;94.92;93487.16;5037401;28;20035;-82
2022/12/20 08:48:09;;;;;;;3.70;1.95;;;;;;;2.97;94.67;93486.72;5055843;28;20048;-81
2022/12/20 08:50:35;;;;;;;3.78;1.90;;;;;;;2.97;95.07;93484.13;5055715;28;20033;-80
2022/12/20 08:53:39;;;;;;;4.00;2.03;;;;;;;3.03;95.45;93481.47;5037938;28;20445;-82
2022/12/20 08:56:10;;;;;;;2.95;1.63;;;;;;;3.04;95.08;93485.66;5055817;28;20040;-80
2022/12/20 08:58:36;;;;;;;2.75;1.60;;;;;;;3.07;95.00;93474.88;5045705;28;20512;-80
2022/12/20 09:01:04;;;;;;;4.40;1.63;;;;;;;3.17;94.85;93483.94;5040820;28;20028;-82
2022/12/20 09:03:31;;;;;;;2.75;1.50;;;;;;;3.23;94.26;93483.06;5056631;28;20040;-80
2022/12/20 09:05:58;;;;;;;2.78;1.58;;;;;;;3.29;93.65;93484.81;5075397;28;20123;-82
2022/12/20 09:08:24;;;;;;;3.97;1.67;;;;;;;3.32;92.71;93477.38;5057417;28;20050;-82
2022/12/20 09:10:50;;;;;;;4.80;1.65;;;;;;;3.43;92.20;93488.03;5075454;28;20482;-81
2022/12/20 09:13:16;;;;;;;3.53;1.70;;;;;;;3.50;91.12;93488.72;5075381;28;20112;-81
2022/12/20 09:15:42;;;;;;;5.35;1.55;;;;;;;3.55;90.55;93492.22;5075507;28;20546;-81
2022/12/20 09:18:08;;;;;;;2.40;1.52;;;;;;;3.60;89.86;93485.63;5075572;28;20107;-80
2022/12/20 09:20:33;;;;;;;3.30;1.90;;;;;;;3.67;89.51;93481.94;5074968;28;20024;-82
2022/12/20 09:22:59;;;;;;;4.90;1.80;;;;;;;3.71;89.21;93484.88;5075269;28;20037;-81
2022/12/20 09:25:26;;;;;;;4.15;1.83;;;;;;;3.76;89.26;93477.25;5075325;28;20041;-83
2022/12/20 09:27:55;;;;;;;3.20;1.65;;;;;;;3.87;89.63;93478.28;5074766;28;20044;-83
2022/12/20 09:30:21;;;;;;;3.78;1.95;;;;;;;3.93;89.49;93488.56;5075071;28;20040;-82
2022/12/20 09:32:47;;;;;;;3.95;1.83;;;;;;;3.97;89.92;93474.16;5057695;28;20111;-82
2022/12/20 09:35:13;;;;;;;6.20;2.15;;;;;;;4.04;88.98;93483.66;5041464;28;20129;-82
2022/12/20 09:37:38;;;;;;;3.80;2.10;;;;;;;4.07;88.12;93488.38;5065233;28;20060;-80
2022/12/20 09:40:04;;;;;;;4.55;2.20;;;;;;;4.09;87.43;93478.59;5064667;28;20041;-81
2022/12/20 09:42:30;;;;;;;3.92;1.98;;;;;;;4.10;86.03;93478.38;5063546;28;20045;-83
2022/12/20 09:45:04;;;;;;;3.70;1.98;;;;;;;4.13;85.45;93479.72;5042333;28;20471;-81
2022/12/20 09:47:33;;;;;;;3.92;2.10;;;;;;;4.15;85.67;93480.31;5076046;28;20028;-81
2022/12/20 09:49:59;;;;;;;3.85;1.80;;;;;;;4.18;85.66;93474.66;5057898;28;20090;-82
2022/12/20 09:52:38;;;;;;;3.22;1.70;;;;;;;4.24;85.88;93475.59;5075768;28;20028;-82
2022/12/20 09:55:12;;;;;;;4.07;2.10;;;;;;;4.11;79.53;93476.56;5075488;28;20108;-82
2022/12/20 09:58:05;;;;;;;3.47;1.80;;;;;;;4.10;79.13;93473.19;5076132;28;20356;-82
2022/12/20 10:00:46;;;;;;;4.57;2.20;;;;;;;4.08;78.69;93459.66;5075685;28;20090;-82
2022/12/20 10:03:28;;;;;;;4.10;2.13;;;;;;;4.18;73.04;93479.84;5057460;28;20028;-82
2022/12/20 10:05:57;;;;;;;4.28;2.08;;;;;;;3.97;73.05;93476.75;5055466;28;20033;-81
2022/12/20 10:08:55;;;;;;;3.67;1.90;;;;;;;3.87;74.52;93468.75;5074471;28;20132;-82
2022/12/20 10:11:47;;;;;;;4.10;2.00;;;;;;;3.88;76.18;93469.53;5051384;28;20293;-81
2022/12/20 10:14:43;;;;;;;5.47;2.33;;;;;;;3.99;79.06;93463.59;5059013;28;20036;-80
2022/12/20 10:17:32;;;;;;;5.63;2.40;;;;;;;4.09;79.15;93463.03;5075041;28;20036;-83
2022/12/20 10:20:10;;;;;;;5.35;2.20;;;;;;;4.09;78.78;93463.03;5057156;28;20040;-77
2022/12/20 10:22:48;;;;;;;4.40;2.20;;;;;;;4.13;79.41;93461.59;5072884;28;20590;-77
2022/12/20 10:25:18;;;;;;;4.25;2.30;;;;;;;4.19;79.85;93460.72;5073167;28;20402;-76
2022/12/20 10:27:46;;;;;;;3.70;2.08;;;;;;;4.24;79.88;93453.06;5073020;28;20037;-77
2022/12/20 10:30:20;;;;;;;4.55;1.90;;;;;;;4.32;79.92;93460.50;5055528;28;20588;-77
2022/12/20 10:32:56;;;;;;;3.63;1.80;;;;;;;4.37;79.64;93446.88;5073405;28;20506;-77
2022/12/20 10:35:21;;;;;;;5.70;2.05;;;;;;;4.50;78.79;93453.63;5072611;28;20032;-77
2022/12/20 10:38:11;;;;;;;4.22;2.30;;;;;;;4.47;79.16;93454.09;5072900;28;20032;-77
2022/12/20 10:40:41;;;;;;;4.45;2.20;;;;;;;4.50;79.92;93451.84;5072774;28;20036;-77
2022/12/20 10:43:15;;;;;;;3.30;1.60;;;;;;;4.65;78.96;93448.78;5054640;28;20029;-77
2022/12/20 10:45:42;;;;;;;4.82;2.33;;;;;;;4.85;77.52;93442.50;5072375;28;20037;-76
2022/12/20 10:48:30;;;;;;;4.07;2.25;;;;;;;4.71;77.59;93441.94;5055085;28;20497;-76
2022/12/20 10:51:01;;;;;;;4.30;2.30;;;;;;;4.69;78.02;93439.56;5054003;28;20115;-77
2022/12/20 10:53:27;;;;;;;4.22;2.03;;;;;;;4.77;76.99;93430.63;5072648;28;20075;-76
2022/12/20 10:56:09;;;;;;;4.47;2.00;;;;;;;4.88;77.89;93431.63;5072909;28;20036;-78
2022/12/20 10:58:37;;;;;;;4.70;2.40;;;;;;;4.93;76.04;93417.00;5055149;28;20050;-75
2022/12/20 11:01:16;;;;;;;8.93;3.67;;;;;;;4.93;75.66;93403.19;5072957;28;20032;-77
2022/12/20 11:04:28;;;;;;;6.82;3.05;;;;;;;5.20;75.27;93406.06;5071853;28;20044;-76
2022/12/20 11:06:54;;;;;;;5.45;2.17;;;;;;;5.24;74.89;93414.19;5031840;28;20053;-76
2022/12/20 11:09:34;;;;;;;3.72;1.90;;;;;;;5.28;72.66;93410.91;5078029;28;20119;-76
2022/12/20 11:12:03;;;;;;;3.47;1.90;;;;;;;5.29;73.13;93409.91;5078208;28;20045;-76
2022/12/20 11:14:30;;;;;;;2.63;1.60;;;;;;;5.32;74.18;93406.06;5077622;28;20025;-77
2022/12/20 11:16:59;;;;;;;3.45;1.83;;;;;;;5.31;74.58;93407.84;5054928;28;20032;-77
2022/12/20 11:19:31;;;;;;;3.45;1.83;;;;;;;5.32;74.74;93413.84;5054146;28;20032;-77
2022/12/20 11:22:36;;;;;;;3.45;1.88;;;;;;;5.32;74.95;93411.25;5072493;28;20036;-77
2022/12/20 11:25:22;;;;;;;4.43;2.00;;;;;;;5.39;75.75;93409.31;5072163;28;20029;-77
2022/12/20 11:28:09;;;;;;;3.83;2.15;;;;;;;5.39;76.25;93393.72;5053350;28;20049;-76
2022/12/20 11:31:03;;;;;;;4.03;2.03;;;;;;;5.41;77.11;93389.09;5071884;28;20406;-77
2022/12/20 11:33:41;;;;;;;7.22;3.35;;;;;;;5.14;74.74;93388.84;5072053;28;20040;-77
2022/12/20 11:36:45;;;;;;;8.20;3.75;;;;;;;4.84;76.98;93389.00;5071451;28;20040;-76
2022/12/20 11:39:29;;;;;;;5.82;3.20;;;;;;;4.87;77.29;93383.38;4999613;28;20498;-77
2022/12/20 11:42:13;;;;;;;5.80;2.92;;;;;;;4.95;76.86;93375.22;5071515;28;20043;-76
2022/12/20 11:44:57;;;;;;;13.93;6.85;;;;;;;4.95;75.91;93357.06;5071509;28;20042;-76
2022/12/20 11:47:41;;;;;;;8.65;4.50;;;;;;;4.82;76.27;93345.16;5053292;28;20043;-77
2022/12/20 11:50:32;;;;;;;8.85;3.20;;;;;;;4.78;75.48;93339.63;5053819;28;20516;-77
2022/12/20 11:53:31;;;;;;;5.43;2.80;;;;;;;4.75;74.83;93345.28;5071608;28;20056;-76
2022/12/20 11:56:02;;;;;;;5.38;2.80;;;;;;;4.74;77.93;93337.72;5071357;28;20486;-77
2022/12/20 11:58:50;;;;;;;4.25;2.53;;;;;;;4.87;77.63;93331.50;5071010;28;20037;-77
2022/12/20 12:01:19;;;;;;;5.13;2.70;;;;;;;5.07;77.27;93334.47;5071387;28;20047;-77
2022/12/20 12:04:11;;;;;;;9.48;3.45;;;;;;;5.30;74.54;93325.81;5071076;28;20104;-77
2022/12/20 12:06:47;;;;;;;6.15;2.80;;;;;;;5.39;74.37;93328.81;5053714;28;20678;-77
2022/12/20 12:09:34;;;;;;;5.85;2.30;;;;;;;5.36;75.48;93329.28;5053330;28;20036;-77
2022/12/20 12:12:05;;;;;;;4.30;2.72;;;;;;;5.37;75.12;93329.03;5071509;28;20037;-76
2022/12/20 12:14:43;;;;;;;5.38;2.90;;;;;;;5.39;75.22;93327.00;5053483;28;20119;-76
2022/12/20 12:17:44;;;;;;;5.18;2.92;;;;;;;5.63;73.65;93308.72;5071110;28;20040;-76